Time;durP1;ratioP1;P1;durP2;ratioP2;P2;SDS_P1;SDS_P2;PMS_P1;PMS_P2;Temp;Humidity;BMP_temperature;BMP_pressure;BME280_temperature;BME280_humidity;BME280_pressure;Samples;Min_cycle;Max_cycle;Signal;HPM_P1;HPM_P2
2024/01/07 00:00:08;;;;;;;10.60;3.95;;;;;;;4.05;79.41;100900.31;4989305;28;20648;-48
2024/01/07 00:02:36;;;;;;;9.80;3.72;;;;;;;3.99;80.18;100900.09;4990666;28;20567;-51
2024/01/07 00:05:03;;;;;;;11.20;4.35;;;;;;;4.00;79.69;100901.84;4987455;28;20049;-49
2024/01/07 00:07:30;;;;;;;10.98;3.50;;;;;;;3.98;79.37;100903.44;4985713;28;20049;-48
2024/01/07 00:09:56;;;;;;;12.02;4.65;;;;;;;3.95;79.54;100911.03;4988613;28;20052;-48
2024/01/07 00:12:24;;;;;;;9.93;4.05;;;;;;;3.90;79.32;100915.97;4996783;28;20053;-45
2024/01/07 00:14:51;;;;;;;10.90;3.92;;;;;;;3.90;79.61;100925.34;5013058;28;20059;-46
2024/01/07 00:17:18;;;;;;;10.18;4.30;;;;;;;3.86;80.16;100920.09;5008032;28;20511;-46
2024/01/07 00:19:44;;;;;;;9.45;4.55;;;;;;;3.87;79.81;100923.53;5005713;28;20049;-43
2024/01/07 00:22:11;;;;;;;9.68;3.83;;;;;;;3.85;79.69;100928.63;5011574;28;20049;-46
2024/01/07 00:24:38;;;;;;;12.52;5.78;;;;;;;3.85;79.52;100926.06;5011125;28;20410;-48
2024/01/07 00:27:05;;;;;;;11.00;5.10;;;;;;;3.83;79.59;100934.50;5009423;28;20399;-47
2024/01/07 00:29:34;;;;;;;8.68;3.55;;;;;;;3.83;79.82;100940.50;5009104;28;20266;-51
2024/01/07 00:32:02;;;;;;;10.27;4.53;;;;;;;3.83;79.93;100930.25;5017787;28;20046;-48
2024/01/07 00:34:29;;;;;;;4.07;2.22;;;;;;;3.82;79.91;100933.59;5019667;28;20506;-46
2024/01/07 00:36:56;;;;;;;9.60;5.25;;;;;;;3.82;79.98;100932.75;5017540;28;20359;-53
2024/01/07 00:39:25;;;;;;;12.75;5.30;;;;;;;3.83;79.57;100945.63;5015647;28;20049;-50
2024/01/07 00:41:52;;;;;;;16.17;5.03;;;;;;;3.86;79.62;100939.75;5020460;28;20057;-52
2024/01/07 00:44:18;;;;;;;17.10;6.10;;;;;;;3.85;79.75;100949.13;5024145;28;20453;-47
2024/01/07 00:46:45;;;;;;;10.23;4.03;;;;;;;3.84;79.75;100947.38;5013164;28;20050;-49
2024/01/07 00:49:15;;;;;;;12.38;4.55;;;;;;;3.85;79.84;100955.94;5009533;28;20034;-49
2024/01/07 00:51:42;;;;;;;11.77;4.95;;;;;;;3.83;79.54;100953.31;5009726;28;20056;-54
2024/01/07 00:54:08;;;;;;;11.70;4.13;;;;;;;3.85;79.74;100959.38;5011989;28;20050;-47
2024/01/07 00:56:35;;;;;;;8.00;2.95;;;;;;;3.82;79.82;100956.69;5019036;28;20049;-44
2024/01/07 00:59:02;;;;;;;11.23;4.82;;;;;;;3.82;79.91;100959.25;5015034;28;20042;-49
2024/01/07 01:01:28;;;;;;;10.18;4.53;;;;;;;3.82;79.85;100963.50;5011126;28;20041;-47
2024/01/07 01:03:57;;;;;;;10.50;2.13;;;;;;;3.77;79.65;100960.75;5016180;28;20069;-44
2024/01/07 01:06:24;;;;;;;15.27;4.85;;;;;;;3.77;79.74;100965.88;5012689;28;20054;-47
2024/01/07 01:08:51;;;;;;;16.50;4.30;;;;;;;3.77;79.68;100959.88;5013369;28;20686;-47
2024/01/07 01:11:20;;;;;;;5.47;3.13;;;;;;;3.75;79.61;100966.63;5016538;28;20057;-44
2024/01/07 01:13:47;;;;;;;13.70;4.88;;;;;;;3.74;79.86;100968.31;5015909;28;20045;-42
2024/01/07 01:16:13;;;;;;;10.88;4.22;;;;;;;3.75;79.50;100970.06;5007948;28;20120;-50
2024/01/07 01:18:41;;;;;;;10.60;4.28;;;;;;;3.72;79.49;100968.25;5007221;28;20507;-49
2024/01/07 01:21:09;;;;;;;13.32;3.55;;;;;;;3.72;79.97;100973.38;5013043;28;20057;-46
2024/01/07 01:23:36;;;;;;;11.52;4.43;;;;;;;3.70;80.08;100969.91;5014602;28;20058;-44
2024/01/07 01:26:03;;;;;;;10.63;3.80;;;;;;;3.70;79.99;100974.13;5019195;28;20049;-49
2024/01/07 01:28:30;;;;;;;11.25;3.75;;;;;;;3.69;79.71;100977.50;5011265;28;20045;-51
2024/01/07 01:30:57;;;;;;;6.47;3.20;;;;;;;3.68;80.06;100980.91;5012129;28;20136;-45
2024/01/07 01:33:23;;;;;;;9.80;3.28;;;;;;;3.66;79.56;100978.28;5010396;28;20566;-46
2024/01/07 01:35:50;;;;;;;11.18;4.70;;;;;;;3.66;79.62;100982.50;5012794;28;20050;-53
2024/01/07 01:38:18;;;;;;;11.98;3.72;;;;;;;3.65;79.64;100986.75;5016578;28;20042;-50
2024/01/07 01:40:54;;;;;;;15.40;4.95;;;;;;;3.65;79.80;100985.88;5012809;28;20046;-44
2024/01/07 01:43:26;;;;;;;10.88;3.92;;;;;;;3.64;80.08;100991.84;5010103;28;20496;-52
2024/01/07 01:45:55;;;;;;;11.05;4.25;;;;;;;3.62;79.32;100996.00;5012476;28;20046;-47
2024/01/07 01:48:23;;;;;;;8.57;3.47;;;;;;;3.63;79.91;101008.00;5012296;28;20502;-51
2024/01/07 01:50:53;;;;;;;9.85;4.30;;;;;;;3.62;79.93;101001.13;5010570;28;20076;-50
2024/01/07 01:53:30;;;;;;;7.10;3.03;;;;;;;3.60;79.89;101004.50;5018302;28;20054;-46
2024/01/07 01:56:00;;;;;;;21.05;5.07;;;;;;;3.60;79.90;101007.06;5016165;28;20057;-46
2024/01/07 01:58:28;;;;;;;8.40;3.63;;;;;;;3.58;79.98;101011.25;5009658;28;20068;-49
2024/01/07 02:00:55;;;;;;;9.88;3.58;;;;;;;3.57;80.42;101009.50;5011391;28;20046;-51
2024/01/07 02:03:24;;;;;;;10.50;3.75;;;;;;;3.58;79.95;101012.97;5013508;28;20103;-48
2024/01/07 02:05:53;;;;;;;6.13;2.20;;;;;;;3.54;79.92;101014.50;5010690;28;20062;-54
2024/01/07 02:08:20;;;;;;;11.27;2.63;;;;;;;3.58;79.98;101018.94;5013957;28;20041;-50
2024/01/07 02:10:47;;;;;;;9.68;4.65;;;;;;;3.58;79.79;101020.63;5012663;28;20046;-47
2024/01/07 02:13:14;;;;;;;5.97;3.03;;;;;;;3.57;80.05;101021.44;5016281;28;20057;-46
2024/01/07 02:15:42;;;;;;;5.60;2.58;;;;;;;3.57;79.64;101024.88;5017919;28;20077;-46
2024/01/07 02:18:10;;;;;;;8.32;2.92;;;;;;;3.55;79.39;101026.47;5010921;28;20136;-50
2024/01/07 02:20:37;;;;;;;6.60;2.83;;;;;;;3.50;79.92;101025.44;5010973;28;20053;-49
2024/01/07 02:23:04;;;;;;;5.60;2.70;;;;;;;3.46;79.73;101031.22;5012485;28;20053;-47
2024/01/07 02:25:38;;;;;;;6.72;2.72;;;;;;;3.45;79.81;101025.22;5017089;28;20494;-47
2024/01/07 02:28:05;;;;;;;12.30;2.85;;;;;;;3.46;79.78;101031.22;5012426;28;20092;-49
2024/01/07 02:30:32;;;;;;;11.60;3.42;;;;;;;3.45;79.63;101030.34;5014724;28;20144;-43
2024/01/07 02:33:03;;;;;;;7.55;3.53;;;;;;;3.46;79.63;101033.78;5012302;28;20418;-50
2024/01/07 02:35:30;;;;;;;6.50;1.80;;;;;;;3.46;79.75;101041.47;5013902;28;20064;-52
2024/01/07 02:37:56;;;;;;;6.57;2.72;;;;;;;3.48;80.02;101042.44;5017782;28;20049;-49
2024/01/07 02:40:23;;;;;;;8.63;3.58;;;;;;;3.47;79.68;101038.09;5010840;28;20046;-47
2024/01/07 02:42:50;;;;;;;8.25;3.33;;;;;;;3.47;79.61;101041.53;5010212;28;20045;-46
2024/01/07 02:45:17;;;;;;;8.27;2.63;;;;;;;3.47;79.70;101038.09;5012931;28;20068;-45
2024/01/07 02:47:43;;;;;;;5.88;2.72;;;;;;;3.49;80.08;101041.63;5016992;28;20061;-49
2024/01/07 02:50:10;;;;;;;6.90;2.67;;;;;;;3.47;79.70;101045.78;5007838;28;20045;-49
2024/01/07 02:52:38;;;;;;;7.60;2.90;;;;;;;3.46;79.74;101042.38;5013187;28;20052;-44
2024/01/07 02:55:07;;;;;;;10.00;3.40;;;;;;;3.46;79.27;101046.59;5007975;28;20042;-48
2024/01/07 02:57:34;;;;;;;7.88;3.63;;;;;;;3.44;79.59;101048.22;5014027;28;20414;-48
2024/01/07 03:00:00;;;;;;;9.88;2.65;;;;;;;3.43;79.54;101047.34;5010365;28;20041;-46
2024/01/07 03:02:27;;;;;;;7.18;2.92;;;;;;;3.45;79.80;101049.97;5011893;28;20049;-49
2024/01/07 03:04:54;;;;;;;6.43;3.72;;;;;;;3.44;79.88;101053.34;4998300;28;20414;-46
2024/01/07 03:07:20;;;;;;;6.13;2.30;;;;;;;3.45;79.42;101052.53;5010037;28;20049;-44
2024/01/07 03:09:48;;;;;;;5.97;2.22;;;;;;;3.44;79.66;101054.22;5006484;28;20050;-48
2024/01/07 03:12:16;;;;;;;4.57;2.05;;;;;;;3.45;79.80;101060.22;5012562;28;20045;-48
2024/01/07 03:14:43;;;;;;;7.63;2.90;;;;;;;3.46;79.47;101056.84;5016649;28;20132;-47
2024/01/07 03:17:10;;;;;;;7.80;2.80;;;;;;;3.47;79.51;101053.47;5008933;28;20057;-51
2024/01/07 03:19:38;;;;;;;10.15;2.55;;;;;;;3.44;80.02;101064.47;5010489;28;20050;-45
2024/01/07 03:22:07;;;;;;;4.10;1.95;;;;;;;3.42;79.55;101070.34;5008859;28;20053;-47
2024/01/07 03:24:34;;;;;;;8.35;3.38;;;;;;;3.40;79.30;101067.72;5013478;28;21676;-45
2024/01/07 03:27:03;;;;;;;4.80;1.95;;;;;;;3.41;79.07;101071.16;5006494;28;20073;-47
2024/01/07 03:29:30;;;;;;;5.60;1.63;;;;;;;3.40;79.34;101071.94;5008707;28;20475;-47
2024/01/07 03:31:57;;;;;;;4.43;1.48;;;;;;;3.38;79.45;101073.56;5012631;28;20060;-44
2024/01/07 03:34:24;;;;;;;3.78;2.00;;;;;;;3.37;78.88;101076.97;5007114;28;20051;-45
2024/01/07 03:36:51;;;;;;;3.55;1.58;;;;;;;3.36;79.40;101076.06;5008379;28;20054;-49
2024/01/07 03:39:19;;;;;;;4.63;2.17;;;;;;;3.34;79.27;101077.66;5007640;28;20049;-49
2024/01/07 03:41:45;;;;;;;5.90;2.15;;;;;;;3.34;78.79;101088.81;5015793;28;20042;-43
2024/01/07 03:44:12;;;;;;;4.45;2.10;;;;;;;3.33;79.38;101086.16;5008103;28;20054;-46
2024/01/07 03:46:41;;;;;;;4.70;1.23;;;;;;;3.33;78.60;101087.06;5013182;28;20050;-49
2024/01/07 03:49:08;;;;;;;8.13;2.13;;;;;;;3.31;79.24;101088.66;5015796;28;20053;-50
2024/01/07 03:51:34;;;;;;;4.25;1.48;;;;;;;3.28;78.69;101093.63;5012895;28;20060;-45
2024/01/07 03:54:01;;;;;;;5.65;1.92;;;;;;;3.28;79.27;101096.19;5010214;28;20056;-54
2024/01/07 03:56:27;;;;;;;5.93;2.33;;;;;;;3.29;78.76;101090.28;5018359;28;20056;-52
2024/01/07 03:58:54;;;;;;;4.38;2.05;;;;;;;3.29;78.68;101085.19;5013506;28;20058;-43
2024/01/07 04:01:22;;;;;;;4.72;1.75;;;;;;;3.27;78.97;101091.91;5013152;28;20046;-53
2024/01/07 04:03:49;;;;;;;7.28;1.65;;;;;;;3.26;78.51;101100.41;5010703;28;20054;-48
2024/01/07 04:06:16;;;;;;;2.45;1.02;;;;;;;3.25;78.40;101098.66;5018208;28;20103;-49
2024/01/07 04:08:44;;;;;;;2.33;0.85;;;;;;;3.22;78.18;101103.63;5014149;28;20049;-48
2024/01/07 04:11:10;;;;;;;5.15;1.30;;;;;;;3.25;78.67;101108.00;5017861;28;20054;-43
2024/01/07 04:13:37;;;;;;;5.68;2.28;;;;;;;3.25;78.73;101108.91;5008364;28;20045;-51
2024/01/07 04:16:03;;;;;;;3.97;1.63;;;;;;;3.24;78.63;101112.25;5015650;28;20052;-49
2024/01/07 04:18:32;;;;;;;2.80;1.20;;;;;;;3.24;79.10;101116.50;5020237;28;20560;-49
2024/01/07 04:20:58;;;;;;;9.43;2.03;;;;;;;3.23;78.62;101115.63;5016736;28;20052;-45
2024/01/07 04:23:28;;;;;;;5.80;1.67;;;;;;;3.23;78.64;101118.19;5014236;28;20057;-47
2024/01/07 04:25:55;;;;;;;2.92;1.50;;;;;;;3.21;78.19;101119.81;5013110;28;20049;-47
2024/01/07 04:28:21;;;;;;;3.53;1.40;;;;;;;3.21;78.47;101120.66;5012989;28;20049;-45
2024/01/07 04:30:48;;;;;;;8.25;1.52;;;;;;;3.22;78.34;101129.25;5018330;28;20232;-48
2024/01/07 04:33:15;;;;;;;2.38;1.73;;;;;;;3.21;78.00;101123.22;5014872;28;20137;-48
2024/01/07 04:35:42;;;;;;;2.97;1.23;;;;;;;3.20;78.32;101125.72;5013025;28;20061;-50
2024/01/07 04:38:08;;;;;;;3.85;1.15;;;;;;;3.20;78.23;101118.03;5016786;28;20053;-48
2024/01/07 04:40:36;;;;;;;2.63;0.93;;;;;;;3.18;78.82;101123.09;5013941;28;20056;-50
2024/01/07 04:43:03;;;;;;;3.83;1.10;;;;;;;3.17;78.06;101115.34;5016793;28;20057;-45
2024/01/07 04:45:30;;;;;;;5.20;0.98;;;;;;;3.14;78.47;101121.19;5017035;28;20050;-50
2024/01/07 04:47:57;;;;;;;5.38;1.63;;;;;;;3.13;78.26;101116.00;5011057;28;20045;-47
2024/01/07 04:50:23;;;;;;;8.02;1.15;;;;;;;3.07;78.52;101120.06;5014194;28;20128;-48
2024/01/07 04:52:50;;;;;;;3.67;1.48;;;;;;;3.02;78.21;101121.53;5022035;28;20064;-50
2024/01/07 04:55:17;;;;;;;1.42;0.80;;;;;;;2.96;78.14;101116.13;5016157;28;20045;-47
2024/01/07 04:57:44;;;;;;;2.10;0.73;;;;;;;2.87;77.62;101120.84;5016206;28;20054;-46
2024/01/07 05:00:11;;;;;;;2.45;1.73;;;;;;;2.81;78.13;101119.72;5008870;28;20410;-49
2024/01/07 05:02:38;;;;;;;1.65;0.95;;;;;;;2.74;77.42;101125.38;5016837;28;20045;-46
2024/01/07 05:05:05;;;;;;;5.85;1.42;;;;;;;2.70;78.28;101126.03;5010162;28;20056;-42
2024/01/07 05:07:31;;;;;;;2.38;1.25;;;;;;;2.66;77.40;101131.81;5017962;28;20049;-47
2024/01/07 05:10:01;;;;;;;2.88;1.23;;;;;;;2.60;78.46;101131.53;5021220;28;20053;-48
2024/01/07 05:12:28;;;;;;;5.15;1.45;;;;;;;2.55;77.56;101139.88;5014521;28;20050;-47
2024/01/07 05:14:54;;;;;;;3.97;0.80;;;;;;;2.49;77.68;101133.56;5014568;28;20053;-46
2024/01/07 05:17:22;;;;;;;1.67;0.47;;;;;;;2.45;77.60;101137.66;5011293;28;20491;-47
2024/01/07 05:19:49;;;;;;;1.52;0.65;;;;;;;2.39;78.23;101137.34;5013090;28;20507;-50
2024/01/07 05:22:16;;;;;;;3.58;0.88;;;;;;;2.33;78.15;101137.06;5011939;28;20046;-46
2024/01/07 05:24:43;;;;;;;2.03;0.38;;;;;;;2.26;78.35;101147.00;5012534;28;20077;-51
2024/01/07 05:27:10;;;;;;;4.65;0.70;;;;;;;2.26;78.87;101144.44;5015882;28;20068;-49
2024/01/07 05:29:36;;;;;;;2.47;0.57;;;;;;;2.26;77.57;101141.88;5018918;28;20076;-50
2024/01/07 05:32:04;;;;;;;3.13;0.80;;;;;;;2.20;78.49;101145.81;5018519;28;20041;-51
2024/01/07 05:34:31;;;;;;;1.92;0.63;;;;;;;2.16;79.08;101149.91;5013164;28;20060;-47
2024/01/07 05:36:59;;;;;;;2.20;0.73;;;;;;;2.16;77.99;101157.59;5017230;28;20462;-43
2024/01/07 05:39:26;;;;;;;4.88;0.60;;;;;;;2.13;77.96;101155.72;5014803;28;20184;-48
2024/01/07 05:41:53;;;;;;;2.03;1.13;;;;;;;2.12;77.77;101163.31;5014073;28;20064;-44
2024/01/07 05:44:19;;;;;;;2.80;2.03;;;;;;;2.07;77.64;101164.78;5015820;28;20384;-56
2024/01/07 05:46:46;;;;;;;2.72;0.80;;;;;;;2.07;78.39;101162.22;5012105;28;20042;-50
2024/01/07 05:49:13;;;;;;;0.17;0.10;;;;;;;2.00;79.15;101164.47;5009881;28;20046;-54
2024/01/07 05:51:40;;;;;;;10.00;1.67;;;;;;;1.99;78.61;101165.25;5018005;28;20143;-46
2024/01/07 05:54:08;;;;;;;1.90;1.02;;;;;;;1.95;79.19;101172.72;5009852;28;20061;-47
2024/01/07 05:56:42;;;;;;;1.92;0.60;;;;;;;1.95;78.57;101178.69;5016702;28;20144;-50
2024/01/07 05:59:08;;;;;;;4.07;0.55;;;;;;;1.89;79.17;101181.81;5015825;28;20060;-48
2024/01/07 06:01:35;;;;;;;2.80;2.08;;;;;;;1.91;78.58;101189.56;5014200;28;20391;-48
2024/01/07 06:04:02;;;;;;;1.42;1.25;;;;;;;1.89;79.39;101184.34;5013523;28;20048;-44
2024/01/07 06:06:33;;;;;;;1.25;0.65;;;;;;;1.87;79.44;101192.75;5013283;28;20119;-48
2024/01/07 06:09:01;;;;;;;1.55;1.42;;;;;;;1.82;78.36;101189.09;5015436;28;20046;-45
2024/01/07 06:11:28;;;;;;;1.50;0.43;;;;;;;1.82;79.17;101194.19;5017533;28;20045;-50
2024/01/07 06:13:55;;;;;;;1.77;0.70;;;;;;;1.80;79.63;101192.41;5011685;28;20137;-53
2024/01/07 06:16:21;;;;;;;2.33;1.13;;;;;;;1.80;78.06;101192.41;5016534;28;20498;-47
2024/01/07 06:18:48;;;;;;;2.50;1.25;;;;;;;1.80;79.07;101194.97;5016155;28;20397;-45
2024/01/07 06:21:15;;;;;;;2.47;1.60;;;;;;;1.80;78.41;101196.66;5015549;28;20050;-45
2024/01/07 06:23:42;;;;;;;2.38;1.17;;;;;;;1.77;78.94;101196.50;5010136;28;20053;-49
2024/01/07 06:26:09;;;;;;;5.30;1.05;;;;;;;1.77;78.82;101197.41;5013627;28;20076;-46
2024/01/07 06:28:35;;;;;;;6.80;1.05;;;;;;;1.77;79.06;101192.28;5011255;28;20050;-53
2024/01/07 06:31:03;;;;;;;3.05;1.55;;;;;;;1.77;78.87;101194.84;5013980;28;20053;-45
2024/01/07 06:33:29;;;;;;;1.35;0.77;;;;;;;1.76;78.26;101200.72;5013390;28;20052;-50
2024/01/07 06:35:57;;;;;;;1.33;1.02;;;;;;;1.75;78.60;101196.44;5013044;28;20077;-48
2024/01/07 06:38:24;;;;;;;0.70;0.60;;;;;;;1.79;78.62;101205.16;5009368;28;20054;-44
2024/01/07 06:40:51;;;;;;;8.40;3.65;;;;;;;1.76;79.48;101210.94;5015393;28;20491;-47
2024/01/07 06:43:17;;;;;;;1.55;0.93;;;;;;;1.82;78.31;101212.09;5010491;28;20053;-47
2024/01/07 06:45:44;;;;;;;4.40;0.88;;;;;;;1.84;79.47;101218.13;5017823;28;20056;-45
2024/01/07 06:48:11;;;;;;;1.77;0.98;;;;;;;1.86;79.04;101219.09;5014607;28;20696;-47
2024/01/07 06:50:37;;;;;;;2.67;0.80;;;;;;;1.88;79.47;101228.59;5015701;28;20116;-42
2024/01/07 06:53:04;;;;;;;2.17;0.68;;;;;;;1.89;78.83;101226.94;5015683;28;20066;-47
2024/01/07 06:55:31;;;;;;;1.33;1.02;;;;;;;1.89;78.61;101232.03;5010040;28;20058;-43
2024/01/07 06:57:57;;;;;;;1.00;0.43;;;;;;;1.88;79.26;101240.50;5016847;28;20060;-52
2024/01/07 07:00:24;;;;;;;2.53;1.23;;;;;;;1.93;79.28;101245.03;5008321;28;20085;-48
2024/01/07 07:02:51;;;;;;;2.90;1.10;;;;;;;1.94;78.70;101240.81;5006139;28;20131;-48
2024/01/07 07:05:18;;;;;;;5.88;1.38;;;;;;;1.96;78.77;101244.31;5014722;28;20054;-53
2024/01/07 07:07:45;;;;;;;3.28;1.42;;;;;;;1.95;77.75;101247.69;5011969;28;20053;-50
2024/01/07 07:10:12;;;;;;;4.00;1.52;;;;;;;1.98;78.11;101258.06;5011489;28;20049;-47
2024/01/07 07:12:39;;;;;;;6.07;2.13;;;;;;;1.91;78.22;101251.75;5014232;28;20077;-47
2024/01/07 07:15:06;;;;;;;6.82;1.13;;;;;;;1.96;78.82;101264.75;5015804;28;20052;-47
2024/01/07 07:17:32;;;;;;;2.83;0.57;;;;;;;1.95;77.91;101263.00;5013552;28;20050;-52
2024/01/07 07:19:59;;;;;;;1.67;0.55;;;;;;;1.92;77.63;101268.84;5006234;28;20129;-47
2024/01/07 07:22:26;;;;;;;2.05;1.33;;;;;;;1.93;77.54;101264.63;5010600;28;20046;-48
2024/01/07 07:24:52;;;;;;;7.50;1.02;;;;;;;1.95;77.50;101265.56;5010764;28;20578;-44
2024/01/07 07:27:21;;;;;;;1.85;1.23;;;;;;;1.93;77.29;101278.25;5018954;28;20045;-53
2024/01/07 07:29:47;;;;;;;1.95;1.83;;;;;;;1.94;77.04;101271.47;5008633;28;20419;-50
2024/01/07 07:32:19;;;;;;;3.25;1.17;;;;;;;1.89;76.94;101280.59;5020688;28;20053;-46
2024/01/07 07:34:46;;;;;;;5.28;0.82;;;;;;;1.85;76.47;101276.09;5010864;28;20058;-47
2024/01/07 07:37:13;;;;;;;6.18;1.55;;;;;;;1.84;76.79;101282.00;5019175;28;20108;-51
2024/01/07 07:39:42;;;;;;;1.88;0.82;;;;;;;1.78;77.41;101286.00;5012803;28;20050;-46
2024/01/07 07:42:10;;;;;;;1.23;0.52;;;;;;;1.79;77.77;101290.31;5012755;28;20049;-51
2024/01/07 07:44:39;;;;;;;0.98;0.70;;;;;;;1.76;76.58;101296.94;5014658;28;20046;-47
2024/01/07 07:47:05;;;;;;;0.70;0.30;;;;;;;1.70;77.37;101294.03;5020312;28;20042;-50
2024/01/07 07:49:32;;;;;;;0.77;0.52;;;;;;;1.70;77.23;101302.59;5015648;28;20045;-47
2024/01/07 07:51:59;;;;;;;1.48;0.50;;;;;;;1.69;76.19;101305.94;5020781;28;20054;-47
2024/01/07 07:54:26;;;;;;;10.70;0.60;;;;;;;1.65;76.89;101304.00;5016744;28;20045;-48
2024/01/07 07:56:52;;;;;;;1.83;0.38;;;;;;;1.63;76.53;101293.75;5016814;28;20050;-46
2024/01/07 07:59:19;;;;;;;1.75;0.93;;;;;;;1.59;76.76;101303.69;5014294;28;20056;-45
2024/01/07 08:01:46;;;;;;;1.95;0.60;;;;;;;1.57;75.60;101313.81;5015798;28;20046;-52
2024/01/07 08:04:12;;;;;;;2.70;1.13;;;;;;;1.57;76.66;101316.38;5015489;28;20041;-50
2024/01/07 08:06:39;;;;;;;2.28;0.65;;;;;;;1.60;76.93;101320.78;5016281;28;20131;-48
2024/01/07 08:09:06;;;;;;;2.08;1.05;;;;;;;1.57;76.27;101320.59;5021357;28;20074;-50
2024/01/07 08:11:33;;;;;;;3.30;0.90;;;;;;;1.53;76.88;101320.41;5016986;28;20434;-45
2024/01/07 08:14:02;;;;;;;1.67;1.58;;;;;;;1.52;76.40;101323.78;5020412;28;20137;-48
2024/01/07 08:16:29;;;;;;;1.35;1.25;;;;;;;1.54;76.47;101322.19;5015476;28;20391;-48
2024/01/07 08:18:56;;;;;;;0.90;0.75;;;;;;;1.59;75.52;101324.13;5015257;28;20050;-46
2024/01/07 08:21:24;;;;;;;1.20;0.55;;;;;;;1.53;76.74;101330.63;5014527;28;20046;-50
2024/01/07 08:23:54;;;;;;;5.25;1.02;;;;;;;1.53;76.54;101333.19;5013407;28;20073;-55
2024/01/07 08:26:20;;;;;;;1.25;0.77;;;;;;;1.56;76.97;101339.28;5015211;28;20058;-45
2024/01/07 08:28:47;;;;;;;1.17;0.95;;;;;;;1.57;77.16;101341.03;5011104;28;20054;-50
2024/01/07 08:31:14;;;;;;;0.82;0.50;;;;;;;1.52;76.55;101335.69;5014245;28;20041;-52
2024/01/07 08:33:40;;;;;;;1.17;0.40;;;;;;;1.59;76.95;101344.56;5016296;28;20041;-51
2024/01/07 08:36:07;;;;;;;6.88;1.17;;;;;;;1.60;77.08;101351.41;5012909;28;20053;-49
2024/01/07 08:38:35;;;;;;;1.00;0.60;;;;;;;1.61;76.37;101345.50;5014574;28;20065;-46
2024/01/07 08:41:02;;;;;;;2.05;0.80;;;;;;;1.61;76.83;101342.94;5020407;28;20073;-46
2024/01/07 08:43:29;;;;;;;0.88;0.73;;;;;;;1.62;76.74;101357.50;5012403;28;20053;-48
2024/01/07 08:45:56;;;;;;;1.45;0.82;;;;;;;1.62;76.99;101365.16;5015605;28;20057;-51
2024/01/07 08:48:23;;;;;;;1.40;0.30;;;;;;;1.67;76.62;101368.84;5014861;28;20052;-47
2024/01/07 08:50:50;;;;;;;4.25;1.85;;;;;;;1.66;77.09;101361.97;5014310;28;20507;-50
2024/01/07 08:53:18;;;;;;;2.30;1.15;;;;;;;1.69;75.94;101364.69;5014890;28;20068;-50
2024/01/07 08:55:45;;;;;;;1.83;0.43;;;;;;;1.67;77.06;101368.84;5019619;28;20104;-49
2024/01/07 08:58:12;;;;;;;3.28;0.60;;;;;;;1.71;76.29;101367.31;5017102;28;20054;-52
2024/01/07 09:00:39;;;;;;;2.35;0.73;;;;;;;1.74;76.63;101365.84;5015819;28;20038;-51
2024/01/07 09:03:06;;;;;;;2.35;0.68;;;;;;;1.77;76.91;101371.13;5021380;28;20060;-52
2024/01/07 09:05:33;;;;;;;5.10;1.75;;;;;;;1.80;75.71;101381.47;5014031;28;20084;-51
2024/01/07 09:08:00;;;;;;;1.98;1.05;;;;;;;1.83;76.04;101379.91;5019665;28;20063;-48
2024/01/07 09:10:33;;;;;;;1.65;1.20;;;;;;;1.84;77.10;101373.97;5015541;28;20149;-49
2024/01/07 09:13:00;;;;;;;4.72;0.80;;;;;;;1.85;76.08;101378.28;5007795;28;20046;-47
2024/01/07 09:15:26;;;;;;;1.83;0.95;;;;;;;1.86;75.61;101380.06;5013562;28;20593;-45
2024/01/07 09:17:53;;;;;;;1.40;0.82;;;;;;;1.92;76.06;101390.59;5015274;28;20045;-47
2024/01/07 09:20:20;;;;;;;0.82;0.63;;;;;;;1.95;76.49;101387.38;5010248;28;20052;-46
2024/01/07 09:22:48;;;;;;;2.40;1.35;;;;;;;1.93;76.76;101393.25;5012213;28;20046;-49
2024/01/07 09:25:15;;;;;;;1.20;0.90;;;;;;;1.96;76.55;101395.09;5013083;28;20523;-52
2024/01/07 09:27:43;;;;;;;2.00;0.45;;;;;;;1.99;75.76;101387.59;5009258;28;20121;-51
2024/01/07 09:30:14;;;;;;;2.28;1.20;;;;;;;2.00;75.23;101389.38;5013712;28;20046;-47
2024/01/07 09:32:41;;;;;;;0.75;0.43;;;;;;;2.01;75.51;101391.13;5013250;28;20041;-44
2024/01/07 09:35:08;;;;;;;3.13;0.98;;;;;;;2.08;75.81;101396.56;5008735;28;20037;-53
2024/01/07 09:37:35;;;;;;;6.88;0.80;;;;;;;2.08;75.43;101396.56;5011626;28;20061;-47
2024/01/07 09:40:05;;;;;;;0.40;0.40;;;;;;;2.05;75.63;101400.72;5012443;28;20133;-48
2024/01/07 09:42:32;;;;;;;1.35;0.93;;;;;;;2.13;75.94;101400.25;5019169;28;20112;-51
2024/01/07 09:45:06;;;;;;;1.27;0.80;;;;;;;2.13;75.27;101395.16;5015568;28;20050;-53
2024/01/07 09:47:34;;;;;;;3.60;0.80;;;;;;;2.20;76.49;101404.91;5009726;28;20787;-51
2024/01/07 09:50:01;;;;;;;3.28;0.85;;;;;;;2.17;76.56;101409.84;5011684;28;20108;-53
2024/01/07 09:52:28;;;;;;;1.48;0.50;;;;;;;2.24;75.93;101408.50;5016409;28;20068;-49
2024/01/07 09:55:00;;;;;;;0.38;0.35;;;;;;;2.23;75.56;101402.47;5012057;28;20549;-45
2024/01/07 09:57:28;;;;;;;2.05;0.55;;;;;;;2.30;75.02;101414.81;5008251;28;20091;-49
2024/01/07 09:59:55;;;;;;;0.93;0.40;;;;;;;2.33;75.11;101413.22;5016137;28;20049;-56
2024/01/07 10:02:23;;;;;;;1.52;0.95;;;;;;;2.34;75.90;101420.97;5010118;28;20506;-47
2024/01/07 10:04:51;;;;;;;1.30;0.63;;;;;;;2.37;75.25;101422.81;5013119;28;20065;-46
2024/01/07 10:07:19;;;;;;;3.40;0.65;;;;;;;2.37;75.53;101427.91;5034426;28;20664;-50
2024/01/07 10:09:46;;;;;;;2.67;0.60;;;;;;;2.40;75.36;101430.66;5023409;28;20057;-50
2024/01/07 10:12:15;;;;;;;2.17;0.70;;;;;;;2.44;74.66;101440.25;5010169;28;20045;-49
2024/01/07 10:14:41;;;;;;;2.15;0.52;;;;;;;2.45;74.72;101436.88;5010841;28;20151;-43
2024/01/07 10:17:17;;;;;;;1.95;0.80;;;;;;;2.52;74.34;101438.06;5020420;28;20060;-53
2024/01/07 10:19:48;;;;;;;2.83;2.63;;;;;;;2.56;74.33;101448.56;5023052;28;20383;-51
2024/01/07 10:22:15;;;;;;;;;;;;;;;2.57;74.67;101452.88;5014935;28;20050;-46
2024/01/07 10:24:44;;;;;;;2.08;0.80;;;;;;;2.59;73.85;101458.06;4997985;28;19990;-51
2024/01/07 10:27:13;;;;;;;1.92;0.45;;;;;;;2.60;73.69;101451.28;5022391;28;20096;-51
2024/01/07 10:29:40;;;;;;;1.27;0.60;;;;;;;2.64;74.43;101453.19;5013343;28;20100;-45
2024/01/07 10:32:16;;;;;;;2.40;1.15;;;;;;;2.71;74.59;101460.41;5010963;28;20042;-53
2024/01/07 10:34:47;;;;;;;2.10;0.50;;;;;;;2.73;74.16;101450.25;5008510;28;20046;-47
2024/01/07 10:37:14;;;;;;;2.30;0.60;;;;;;;2.75;73.58;101449.53;5013833;28;20069;-48
2024/01/07 10:39:41;;;;;;;3.17;0.60;;;;;;;2.82;74.04;101464.41;5010189;28;20061;-46
2024/01/07 10:42:09;;;;;;;1.02;0.30;;;;;;;2.83;73.45;101457.59;5003662;28;20060;-47
2024/01/07 10:44:37;;;;;;;1.48;0.52;;;;;;;2.92;73.66;101465.75;5009906;28;20057;-47
2024/01/07 10:47:09;;;;;;;3.75;1.40;;;;;;;2.97;73.82;101471.09;5025920;28;20076;-46
2024/01/07 10:49:39;;;;;;;2.10;0.70;;;;;;;3.03;72.92;101466.28;5011565;28;20046;-50
2024/01/07 10:52:07;;;;;;;2.00;0.68;;;;;;;3.16;73.19;101466.91;5027573;28;20076;-47
2024/01/07 10:54:47;;;;;;;0.98;0.43;;;;;;;3.29;72.84;101469.31;5023004;28;20057;-46
2024/01/07 10:59:54;;;;;;;2.50;1.98;;;;;;;3.40;72.52;101476.63;5011651;28;20418;-51
2024/01/07 11:02:23;;;;;;;4.32;1.70;;;;;;;3.50;72.05;101481.41;4991363;28;20487;-53
2024/01/07 11:05:15;;;;;;;2.92;1.63;;;;;;;3.57;72.41;101480.91;4984850;28;20054;-50
2024/01/07 11:07:50;;;;;;;2.08;1.98;;;;;;;3.65;71.76;101482.97;4977691;28;20069;-45
2024/01/07 11:10:22;;;;;;;2.05;1.05;;;;;;;3.68;71.01;101488.25;4980886;28;20384;-44
2024/01/07 11:13:00;;;;;;;1.45;1.35;;;;;;;3.68;71.55;101489.13;4974839;28;20051;-47
2024/01/07 11:18:29;;;;;;;2.50;1.90;;;;;;;4.13;70.47;101492.94;5036442;27;23936;-50
2024/01/07 11:21:00;;;;;;;0.70;0.50;;;;;;;4.02;71.36;101497.53;5019059;28;20065;-48
2024/01/07 11:26:04;;;;;;;2.28;2.17;;;;;;;4.08;71.00;101487.59;5051886;28;20975;-45
2024/01/07 11:28:53;;;;;;;4.78;2.35;;;;;;;4.14;71.07;101488.69;5006374;28;20058;-50
2024/01/07 11:31:22;;;;;;;2.38;2.03;;;;;;;4.26;70.62;101493.50;4988041;28;20046;-44
2024/01/07 11:33:50;;;;;;;2.35;2.13;;;;;;;4.32;71.33;101496.38;4988200;28;20149;-44
2024/01/07 11:36:18;;;;;;;2.58;1.85;;;;;;;4.36;70.54;101498.28;5000701;28;20085;-48
2024/01/07 11:38:47;;;;;;;3.47;2.15;;;;;;;4.46;71.41;101497.00;5006657;28;20148;-47
2024/01/07 11:41:20;;;;;;;4.70;0.80;;;;;;;4.58;71.25;101501.81;5001817;28;20490;-50